sensor_id;sensor_type;location;lat;lon;timestamp;pressure;altitude;pressure_sealevel;temperature;humidity
22651;BME280;11492;42.646;23.400;2023-03-14T00:01:50;95304.13;;;4.46;51.88
22651;BME280;11492;42.646;23.400;2023-03-14T00:04:16;95277.63;;;4.37;50.26
22651;BME280;11492;42.646;23.400;2023-03-14T00:06:41;95285.94;;;4.48;48.66
22651;BME280;11492;42.646;23.400;2023-03-14T00:09:07;95270.59;;;4.48;47.86
22651;BME280;11492;42.646;23.400;2023-03-14T00:11:33;95267.63;;;4.62;47.60
22651;BME280;11492;42.646;23.400;2023-03-14T00:13:58;95259.81;;;4.73;49.80
22651;BME280;11492;42.646;23.400;2023-03-14T00:16:25;95260.84;;;4.80;48.39
22651;BME280;11492;42.646;23.400;2023-03-14T00:18:51;95246.88;;;4.74;49.46
22651;BME280;11492;42.646;23.400;2023-03-14T00:21:17;95254.94;;;4.79;48.99
22651;BME280;11492;42.646;23.400;2023-03-14T00:23:44;95252.53;;;4.78;50.28
22651;BME280;11492;42.646;23.400;2023-03-14T00:26:15;95229.41;;;4.70;49.92
22651;BME280;11492;42.646;23.400;2023-03-14T00:28:42;95238.78;;;4.79;50.23
22651;BME280;11492;42.646;23.400;2023-03-14T00:31:09;95235.59;;;4.77;50.31
22651;BME280;11492;42.646;23.400;2023-03-14T00:33:35;95218.38;;;4.60;50.95
22651;BME280;11492;42.646;23.400;2023-03-14T00:36:19;95233.47;;;4.63;50.89
22651;BME280;11492;42.646;23.400;2023-03-14T00:38:50;95224.59;;;4.58;51.15
22651;BME280;11492;42.646;23.400;2023-03-14T00:41:18;95216.94;;;4.48;51.53
22651;BME280;11492;42.646;23.400;2023-03-14T00:43:44;95224.22;;;4.44;51.32
22651;BME280;11492;42.646;23.400;2023-03-14T00:46:10;95227.84;;;4.41;52.19
22651;BME280;11492;42.646;23.400;2023-03-14T00:48:36;95224.09;;;4.36;52.69
22651;BME280;11492;42.646;23.400;2023-03-14T00:51:03;95210.13;;;4.30;52.86
22651;BME280;11492;42.646;23.400;2023-03-14T00:53:29;95208.25;;;4.23;53.24
22651;BME280;11492;42.646;23.400;2023-03-14T00:55:54;95209.34;;;4.11;52.18
22651;BME280;11492;42.646;23.400;2023-03-14T00:58:19;95221.31;;;4.11;52.83
22651;BME280;11492;42.646;23.400;2023-03-14T01:00:45;95214.84;;;4.07;52.75
22651;BME280;11492;42.646;23.400;2023-03-14T01:03:11;95219.28;;;4.05;52.38
22651;BME280;11492;42.646;23.400;2023-03-14T01:05:37;95210.03;;;3.95;53.62
22651;BME280;11492;42.646;23.400;2023-03-14T01:08:03;95199.94;;;3.84;53.38
22651;BME280;11492;42.646;23.400;2023-03-14T01:10:28;95208.25;;;3.86;54.25
22651;BME280;11492;42.646;23.400;2023-03-14T01:12:54;95191.34;;;3.75;53.69
22651;BME280;11492;42.646;23.400;2023-03-14T01:15:20;95200.50;;;3.78;54.37
22651;BME280;11492;42.646;23.400;2023-03-14T01:17:45;95208.25;;;3.76;53.72
22651;BME280;11492;42.646;23.400;2023-03-14T01:20:13;95211.91;;;3.74;54.06
22651;BME280;11492;42.646;23.400;2023-03-14T01:22:39;95194.41;;;3.60;55.38
22651;BME280;11492;42.646;23.400;2023-03-14T01:25:11;95201.53;;;3.66;55.56
22651;BME280;11492;42.646;23.400;2023-03-14T01:27:37;95192.44;;;3.73;55.36
22651;BME280;11492;42.646;23.400;2023-03-14T01:30:03;95185.41;;;3.66;55.03
22651;BME280;11492;42.646;23.400;2023-03-14T01:32:29;95181.41;;;3.63;54.34
22651;BME280;11492;42.646;23.400;2023-03-14T01:34:54;95189.72;;;3.65;55.52
22651;BME280;11492;42.646;23.400;2023-03-14T01:37:20;95168.22;;;3.58;55.40
22651;BME280;11492;42.646;23.400;2023-03-14T01:39:46;95187.03;;;3.67;54.66
22651;BME280;11492;42.646;23.400;2023-03-14T01:42:12;95160.59;;;3.58;54.91
22651;BME280;11492;42.646;23.400;2023-03-14T01:44:58;95160.69;;;3.57;55.61
22651;BME280;11492;42.646;23.400;2023-03-14T01:47:25;95176.56;;;3.60;55.45
22651;BME280;11492;42.646;23.400;2023-03-14T01:52:31;95164.75;;;3.59;54.59
22651;BME280;11492;42.646;23.400;2023-03-14T01:55:03;95164.59;;;3.61;55.72
22651;BME280;11492;42.646;23.400;2023-03-14T01:57:37;95160.69;;;3.57;54.93
22651;BME280;11492;42.646;23.400;2023-03-14T02:00:12;95154.69;;;3.58;54.56
22651;BME280;11492;42.646;23.400;2023-03-14T02:02:42;95152.66;;;3.43;54.76
22651;BME280;11492;42.646;23.400;2023-03-14T02:05:09;95159.91;;;3.38;54.54
22651;BME280;11492;42.646;23.400;2023-03-14T02:07:40;95170.38;;;3.44;53.55
22651;BME280;11492;42.646;23.400;2023-03-14T02:10:09;95148.88;;;3.37;54.20
22651;BME280;11492;42.646;23.400;2023-03-14T02:12:36;95160.97;;;3.45;54.95
22651;BME280;11492;42.646;23.400;2023-03-14T02:15:01;95162.84;;;3.43;55.30
22651;BME280;11492;42.646;23.400;2023-03-14T02:17:27;95150.50;;;3.38;54.55
22651;BME280;11492;42.646;23.400;2023-03-14T02:20:04;95158.00;;;3.40;53.62
22651;BME280;11492;42.646;23.400;2023-03-14T02:22:34;95148.47;;;3.23;54.14
22651;BME280;11492;42.646;23.400;2023-03-14T02:27:38;95146.72;;;3.23;54.63
22651;BME280;11492;42.646;23.400;2023-03-14T02:30:15;95160.53;;;3.30;54.23
22651;BME280;11492;42.646;23.400;2023-03-14T02:32:43;95149.53;;;3.30;55.69
22651;BME280;11492;42.646;23.400;2023-03-14T02:35:13;95145.63;;;3.26;55.37
22651;BME280;11492;42.646;23.400;2023-03-14T02:38:00;95155.97;;;3.24;55.91
22651;BME280;11492;42.646;23.400;2023-03-14T02:40:26;95144.84;;;3.16;56.76
22651;BME280;11492;42.646;23.400;2023-03-14T02:42:52;95153.16;;;3.18;56.10
22651;BME280;11492;42.646;23.400;2023-03-14T02:47:46;95145.50;;;3.18;57.01
22651;BME280;11492;42.646;23.400;2023-03-14T02:50:17;95161.75;;;3.26;57.31
22651;BME280;11492;42.646;23.400;2023-03-14T02:52:45;95158.00;;;3.21;57.49
22651;BME280;11492;42.646;23.400;2023-03-14T02:55:10;95164.19;;;3.28;57.53
22651;BME280;11492;42.646;23.400;2023-03-14T02:57:35;95169.81;;;3.22;57.04
22651;BME280;11492;42.646;23.400;2023-03-14T03:00:02;95166.97;;;3.25;56.75
22651;BME280;11492;42.646;23.400;2023-03-14T03:02:31;95157.94;;;3.02;55.94
22651;BME280;11492;42.646;23.400;2023-03-14T03:04:57;95162.78;;;3.05;57.34
22651;BME280;11492;42.646;23.400;2023-03-14T03:07:23;95169.03;;;2.83;55.40
22651;BME280;11492;42.646;23.400;2023-03-14T03:09:48;95174.38;;;2.80;55.25
22651;BME280;11492;42.646;23.400;2023-03-14T03:12:14;95141.03;;;2.92;55.74
22651;BME280;11492;42.646;23.400;2023-03-14T03:14:39;95151.38;;;3.09;55.96
22651;BME280;11492;42.646;23.400;2023-03-14T03:17:05;95165.47;;;3.13;56.75
22651;BME280;11492;42.646;23.400;2023-03-14T03:19:31;95160.38;;;3.13;56.40
22651;BME280;11492;42.646;23.400;2023-03-14T03:21:57;95162.69;;;3.16;56.24
22651;BME280;11492;42.646;23.400;2023-03-14T03:24:23;95146.97;;;3.11;57.03
22651;BME280;11492;42.646;23.400;2023-03-14T03:26:48;95149.09;;;3.06;56.91
22651;BME280;11492;42.646;23.400;2023-03-14T03:29:14;95160.13;;;3.16;56.97
22651;BME280;11492;42.646;23.400;2023-03-14T03:31:40;95162.25;;;3.21;56.18
22651;BME280;11492;42.646;23.400;2023-03-14T03:34:05;95162.69;;;3.16;56.34
22651;BME280;11492;42.646;23.400;2023-03-14T03:36:31;95149.09;;;3.06;56.56
22651;BME280;11492;42.646;23.400;2023-03-14T03:38:56;95155.66;;;3.09;57.59
22651;BME280;11492;42.646;23.400;2023-03-14T03:41:22;95151.91;;;3.03;57.55
22651;BME280;11492;42.646;23.400;2023-03-14T03:43:47;95163.47;;;3.07;58.31
22651;BME280;11492;42.646;23.400;2023-03-14T03:46:13;95162.66;;;3.07;57.64
22651;BME280;11492;42.646;23.400;2023-03-14T03:48:38;95165.84;;;2.99;58.88
22651;BME280;11492;42.646;23.400;2023-03-14T03:51:04;95166.66;;;3.00;58.46
22651;BME280;11492;42.646;23.400;2023-03-14T03:53:30;95178.47;;;3.01;57.76
22651;BME280;11492;42.646;23.400;2023-03-14T03:55:55;95164.09;;;2.91;58.22
22651;BME280;11492;42.646;23.400;2023-03-14T03:58:21;95166.09;;;2.87;57.94
22651;BME280;11492;42.646;23.400;2023-03-14T04:00:46;95184.78;;;2.97;58.24
22651;BME280;11492;42.646;23.400;2023-03-14T04:03:12;95181.41;;;2.97;58.08
22651;BME280;11492;42.646;23.400;2023-03-14T04:05:37;95178.59;;;2.90;58.32
22651;BME280;11492;42.646;23.400;2023-03-14T04:08:03;95186.09;;;2.92;58.34
22651;BME280;11492;42.646;23.400;2023-03-14T04:10:29;95183.38;;;2.84;57.88
22651;BME280;11492;42.646;23.400;2023-03-14T04:12:55;95181.50;;;2.86;58.69
22651;BME280;11492;42.646;23.400;2023-03-14T04:15:20;95167.78;;;2.77;58.89
22651;BME280;11492;42.646;23.400;2023-03-14T04:17:46;95164.03;;;2.72;59.15
22651;BME280;11492;42.646;23.400;2023-03-14T04:20:11;95165.63;;;2.73;58.27
22651;BME280;11492;42.646;23.400;2023-03-14T04:22:40;95147.22;;;2.60;57.77
22651;BME280;11492;42.646;23.400;2023-03-14T04:25:06;95160.19;;;2.57;58.11
22651;BME280;11492;42.646;23.400;2023-03-14T04:27:32;95152.41;;;2.49;57.43
22651;BME280;11492;42.646;23.400;2023-03-14T04:29:57;95154.78;;;2.42;57.86
22651;BME280;11492;42.646;23.400;2023-03-14T04:32:23;95143.91;;;2.40;56.93
22651;BME280;11492;42.646;23.400;2023-03-14T04:34:48;95140.00;;;2.36;58.15
22651;BME280;11492;42.646;23.400;2023-03-14T04:37:14;95127.13;;;2.28;57.62
22651;BME280;11492;42.646;23.400;2023-03-14T04:39:39;95139.06;;;2.37;58.54
22651;BME280;11492;42.646;23.400;2023-03-14T04:42:04;95131.69;;;2.34;58.39
22651;BME280;11492;42.646;23.400;2023-03-14T04:44:30;95135.66;;;2.27;59.42
22651;BME280;11492;42.646;23.400;2023-03-14T04:46:56;95110.19;;;2.18;58.79
22651;BME280;11492;42.646;23.400;2023-03-14T04:49:22;95127.41;;;2.34;58.57
22651;BME280;11492;42.646;23.400;2023-03-14T04:51:47;95138.91;;;2.29;59.38
22651;BME280;11492;42.646;23.400;2023-03-14T04:54:12;95124.25;;;2.22;58.82
22651;BME280;11492;42.646;23.400;2023-03-14T04:56:38;95128.25;;;1.95;59.35
22651;BME280;11492;42.646;23.400;2023-03-14T04:59:04;95116.78;;;1.80;60.62
22651;BME280;11492;42.646;23.400;2023-03-14T05:01:30;95124.28;;;2.01;60.01
22651;BME280;11492;42.646;23.400;2023-03-14T05:03:55;95130.00;;;2.14;59.58
22651;BME280;11492;42.646;23.400;2023-03-14T05:06:20;95122.50;;;2.22;59.29
22651;BME280;11492;42.646;23.400;2023-03-14T05:08:46;95125.25;;;2.30;58.67
22651;BME280;11492;42.646;23.400;2023-03-14T05:11:11;95121.25;;;2.37;59.42
22651;BME280;11492;42.646;23.400;2023-03-14T05:13:38;95123.28;;;2.13;58.68
22651;BME280;11492;42.646;23.400;2023-03-14T05:16:06;95134.34;;;2.23;59.18
22651;BME280;11492;42.646;23.400;2023-03-14T05:18:32;95114.72;;;2.14;59.35
22651;BME280;11492;42.646;23.400;2023-03-14T05:20:57;95120.56;;;2.35;59.54
22651;BME280;11492;42.646;23.400;2023-03-14T05:23:22;95117.41;;;2.22;59.17
22651;BME280;11492;42.646;23.400;2023-03-14T05:25:48;95115.91;;;2.40;59.65
22651;BME280;11492;42.646;23.400;2023-03-14T05:28:13;95124.53;;;2.57;59.44
22651;BME280;11492;42.646;23.400;2023-03-14T05:30:39;95118.94;;;2.63;59.51
22651;BME280;11492;42.646;23.400;2023-03-14T05:33:05;95113.34;;;2.69;58.47
22651;BME280;11492;42.646;23.400;2023-03-14T05:35:30;95102.44;;;2.67;58.52
22651;BME280;11492;42.646;23.400;2023-03-14T05:37:56;95111.59;;;2.79;59.57
22651;BME280;11492;42.646;23.400;2023-03-14T05:40:21;95106.91;;;2.84;59.19
22651;BME280;11492;42.646;23.400;2023-03-14T05:42:47;95112.84;;;2.94;58.63
22651;BME280;11492;42.646;23.400;2023-03-14T05:45:12;95101.28;;;2.90;58.65
22651;BME280;11492;42.646;23.400;2023-03-14T05:47:38;95099.28;;;2.93;59.02
22651;BME280;11492;42.646;23.400;2023-03-14T05:50:03;95121.19;;;3.14;59.83
22651;BME280;11492;42.646;23.400;2023-03-14T05:52:29;95107.78;;;3.22;58.77
22651;BME280;11492;42.646;23.400;2023-03-14T05:54:54;95105.91;;;3.33;59.05
22651;BME280;11492;42.646;23.400;2023-03-14T05:57:19;95117.88;;;3.42;58.20
22651;BME280;11492;42.646;23.400;2023-03-14T05:59:45;95113.81;;;3.67;59.79
22651;BME280;11492;42.646;23.400;2023-03-14T06:02:10;95109.41;;;3.69;58.06
22651;BME280;11492;42.646;23.400;2023-03-14T06:04:36;95115.56;;;3.76;56.29
22651;BME280;11492;42.646;23.400;2023-03-14T06:07:01;95101.59;;;3.71;56.92
22651;BME280;11492;42.646;23.400;2023-03-14T06:09:27;95108.94;;;4.01;58.61
22651;BME280;11492;42.646;23.400;2023-03-14T06:11:52;95100.50;;;4.37;56.94
22651;BME280;11492;42.646;23.400;2023-03-14T06:14:18;95106.22;;;4.57;55.15
22651;BME280;11492;42.646;23.400;2023-03-14T06:16:43;95103.81;;;4.56;53.68
22651;BME280;11492;42.646;23.400;2023-03-14T06:19:09;95099.16;;;4.69;54.27
22651;BME280;11492;42.646;23.400;2023-03-14T06:21:34;95100.25;;;4.93;55.01
22651;BME280;11492;42.646;23.400;2023-03-14T06:24:00;95099.09;;;5.04;52.57
22651;BME280;11492;42.646;23.400;2023-03-14T06:26:25;95104.22;;;5.04;52.51
22651;BME280;11492;42.646;23.400;2023-03-14T06:28:50;95100.75;;;4.96;53.68
22651;BME280;11492;42.646;23.400;2023-03-14T06:31:16;95107.03;;;5.01;51.92
22651;BME280;11492;42.646;23.400;2023-03-14T06:33:42;95105.03;;;5.22;52.98
22651;BME280;11492;42.646;23.400;2023-03-14T06:36:08;95094.94;;;5.38;51.37
22651;BME280;11492;42.646;23.400;2023-03-14T06:38:33;95099.50;;;5.44;51.01
22651;BME280;11492;42.646;23.400;2023-03-14T06:41:06;95101.81;;;5.37;50.92
22651;BME280;11492;42.646;23.400;2023-03-14T06:43:34;95105.78;;;5.32;50.30
22651;BME280;11492;42.646;23.400;2023-03-14T06:45:59;95089.47;;;5.16;50.04
22651;BME280;11492;42.646;23.400;2023-03-14T06:48:24;95100.50;;;5.16;50.63
22651;BME280;11492;42.646;23.400;2023-03-14T06:50:50;95082.66;;;5.07;50.93
22651;BME280;11492;42.646;23.400;2023-03-14T06:53:15;95089.63;;;5.14;50.65
22651;BME280;11492;42.646;23.400;2023-03-14T06:55:41;95084.44;;;5.23;51.11
22651;BME280;11492;42.646;23.400;2023-03-14T06:58:08;95085.59;;;5.29;51.38
22651;BME280;11492;42.646;23.400;2023-03-14T07:00:34;95080.56;;;5.37;50.42
22651;BME280;11492;42.646;23.400;2023-03-14T07:02:59;95082.81;;;5.40;49.51
22651;BME280;11492;42.646;23.400;2023-03-14T07:05:25;95083.19;;;5.45;50.16
22651;BME280;11492;42.646;23.400;2023-03-14T07:07:50;95069.88;;;5.41;49.64
22651;BME280;11492;42.646;23.400;2023-03-14T07:10:16;95070.41;;;5.45;49.73
22651;BME280;11492;42.646;23.400;2023-03-14T07:12:41;95062.78;;;5.52;50.49
22651;BME280;11492;42.646;23.400;2023-03-14T07:15:07;95060.28;;;5.60;50.04
22651;BME280;11492;42.646;23.400;2023-03-14T07:17:33;95052.97;;;5.65;49.74
22651;BME280;11492;42.646;23.400;2023-03-14T07:19:58;95055.97;;;5.78;50.31
22651;BME280;11492;42.646;23.400;2023-03-14T07:22:24;95053.47;;;5.86;48.83
22651;BME280;11492;42.646;23.400;2023-03-14T07:24:50;95041.94;;;5.90;48.89
22651;BME280;11492;42.646;23.400;2023-03-14T07:27:15;95044.59;;;5.97;48.47
22651;BME280;11492;42.646;23.400;2023-03-14T07:29:41;95040.78;;;6.01;49.07
22651;BME280;11492;42.646;23.400;2023-03-14T07:32:06;95050.78;;;6.20;48.58
22651;BME280;11492;42.646;23.400;2023-03-14T07:34:33;95054.41;;;6.35;48.44
22651;BME280;11492;42.646;23.400;2023-03-14T07:36:59;95029.72;;;6.34;48.61
22651;BME280;11492;42.646;23.400;2023-03-14T07:39:24;95039.78;;;6.52;48.10
22651;BME280;11492;42.646;23.400;2023-03-14T07:41:50;95040.13;;;6.65;49.11
22651;BME280;11492;42.646;23.400;2023-03-14T07:44:15;95014.66;;;6.64;48.34
22651;BME280;11492;42.646;23.400;2023-03-14T07:46:41;95027.53;;;6.79;48.14
22651;BME280;11492;42.646;23.400;2023-03-14T07:49:06;95028.38;;;6.96;48.04
22651;BME280;11492;42.646;23.400;2023-03-14T07:51:32;95024.22;;;7.10;47.94
22651;BME280;11492;42.646;23.400;2023-03-14T07:53:57;95022.00;;;7.15;48.44
22651;BME280;11492;42.646;23.400;2023-03-14T07:56:23;95008.34;;;7.15;47.61
22651;BME280;11492;42.646;23.400;2023-03-14T07:58:48;95028.91;;;7.38;47.62
22651;BME280;11492;42.646;23.400;2023-03-14T08:01:14;95022.66;;;7.48;47.00
22651;BME280;11492;42.646;23.400;2023-03-14T08:03:39;95011.75;;;7.54;46.51
22651;BME280;11492;42.646;23.400;2023-03-14T08:06:05;95017.69;;;7.63;46.27
22651;BME280;11492;42.646;23.400;2023-03-14T08:08:30;95022.66;;;7.80;46.23
22651;BME280;11492;42.646;23.400;2023-03-14T08:10:56;95014.13;;;7.79;44.82
22651;BME280;11492;42.646;23.400;2023-03-14T08:13:26;95019.56;;;8.00;44.53
22651;BME280;11492;42.646;23.400;2023-03-14T08:15:52;95014.91;;;8.19;44.60
22651;BME280;11492;42.646;23.400;2023-03-14T08:18:17;95007.34;;;8.33;43.61
22651;BME280;11492;42.646;23.400;2023-03-14T08:20:43;95015.50;;;8.45;42.88
22651;BME280;11492;42.646;23.400;2023-03-14T08:23:08;95017.97;;;8.98;41.15
22651;BME280;11492;42.646;23.400;2023-03-14T08:25:33;94996.22;;;10.82;37.80
22651;BME280;11492;42.646;23.400;2023-03-14T08:27:59;94991.66;;;12.88;36.13
22651;BME280;11492;42.646;23.400;2023-03-14T08:30:24;94986.69;;;14.67;32.72
22651;BME280;11492;42.646;23.400;2023-03-14T08:32:50;94978.19;;;16.13;29.58
22651;BME280;11492;42.646;23.400;2023-03-14T08:35:16;94992.34;;;16.65;28.97
22651;BME280;11492;42.646;23.400;2023-03-14T08:37:41;94972.97;;;17.61;28.29
22651;BME280;11492;42.646;23.400;2023-03-14T08:40:08;94979.56;;;18.44;26.08
22651;BME280;11492;42.646;23.400;2023-03-14T08:42:36;94965.09;;;18.30;25.48
22651;BME280;11492;42.646;23.400;2023-03-14T08:45:03;94973.06;;;17.95;25.82
22651;BME280;11492;42.646;23.400;2023-03-14T08:47:28;94961.91;;;18.28;26.04
22651;BME280;11492;42.646;23.400;2023-03-14T08:49:54;94964.53;;;18.50;25.28
22651;BME280;11492;42.646;23.400;2023-03-14T08:52:20;94961.22;;;18.77;25.35
22651;BME280;11492;42.646;23.400;2023-03-14T08:54:45;94958.13;;;19.25;25.14
22651;BME280;11492;42.646;23.400;2023-03-14T08:57:11;94944.69;;;19.49;24.11
22651;BME280;11492;42.646;23.400;2023-03-14T08:59:37;94932.72;;;19.26;23.86
22651;BME280;11492;42.646;23.400;2023-03-14T09:02:02;94935.19;;;19.60;23.42
22651;BME280;11492;42.646;23.400;2023-03-14T09:04:31;94939.69;;;20.19;23.42
22651;BME280;11492;42.646;23.400;2023-03-14T09:06:57;94932.22;;;20.60;23.39
22651;BME280;11492;42.646;23.400;2023-03-14T09:09:26;94924.28;;;20.55;22.71
22651;BME280;11492;42.646;23.400;2023-03-14T09:11:52;94924.78;;;20.73;22.79
22651;BME280;11492;42.646;23.400;2023-03-14T09:14:18;94917.13;;;20.88;22.62
22651;BME280;11492;42.646;23.400;2023-03-14T09:16:44;94922.25;;;20.78;22.71
22651;BME280;11492;42.646;23.400;2023-03-14T09:19:09;94917.19;;;20.93;22.03
22651;BME280;11492;42.646;23.400;2023-03-14T09:21:35;94898.06;;;20.76;22.81
22651;BME280;11492;42.646;23.400;2023-03-14T09:24:01;94883.00;;;21.09;22.47
22651;BME280;11492;42.646;23.400;2023-03-14T09:26:26;94890.50;;;21.00;22.10
22651;BME280;11492;42.646;23.400;2023-03-14T09:28:52;94896.25;;;20.98;22.54
22651;BME280;11492;42.646;23.400;2023-03-14T09:31:17;94871.69;;;21.08;21.76
22651;BME280;11492;42.646;23.400;2023-03-14T09:33:43;94873.47;;;21.03;22.12
22651;BME280;11492;42.646;23.400;2023-03-14T09:36:10;94873.06;;;21.16;22.29
22651;BME280;11492;42.646;23.400;2023-03-14T09:38:35;94868.97;;;21.24;22.39
22651;BME280;11492;42.646;23.400;2023-03-14T09:41:03;94871.03;;;21.18;22.58
22651;BME280;11492;42.646;23.400;2023-03-14T09:43:37;94872.06;;;21.38;22.89
22651;BME280;11492;42.646;23.400;2023-03-14T09:46:04;94860.75;;;20.95;23.11
22651;BME280;11492;42.646;23.400;2023-03-14T09:48:32;94849.31;;;21.06;22.92
22651;BME280;11492;42.646;23.400;2023-03-14T09:51:02;94839.25;;;21.19;22.94
22651;BME280;11492;42.646;23.400;2023-03-14T09:53:46;94825.47;;;21.07;23.16
22651;BME280;11492;42.646;23.400;2023-03-14T09:56:16;94820.28;;;20.91;23.36
22651;BME280;11492;42.646;23.400;2023-03-14T09:58:45;94817.41;;;20.93;23.93
22651;BME280;11492;42.646;23.400;2023-03-14T10:01:15;94825.78;;;21.16;24.11
22651;BME280;11492;42.646;23.400;2023-03-14T10:03:44;94810.22;;;21.56;23.72
22651;BME280;11492;42.646;23.400;2023-03-14T10:06:14;94812.25;;;21.49;23.60
22651;BME280;11492;42.646;23.400;2023-03-14T10:08:41;94812.72;;;21.73;23.40
22651;BME280;11492;42.646;23.400;2023-03-14T10:11:15;94812.22;;;21.75;22.99
22651;BME280;11492;42.646;23.400;2023-03-14T10:16:33;94808.25;;;21.73;23.16
22651;BME280;11492;42.646;23.400;2023-03-14T10:19:09;94790.63;;;22.04;23.10
22651;BME280;11492;42.646;23.400;2023-03-14T10:21:39;94785.66;;;22.08;22.44
22651;BME280;11492;42.646;23.400;2023-03-14T10:24:25;94771.38;;;22.40;23.23
22651;BME280;11492;42.646;23.400;2023-03-14T10:26:53;94772.38;;;22.29;22.51
22651;BME280;11492;42.646;23.400;2023-03-14T10:29:19;94763.34;;;22.10;22.68
22651;BME280;11492;42.646;23.400;2023-03-14T10:32:03;94760.75;;;22.25;22.34
22651;BME280;11492;42.646;23.400;2023-03-14T10:34:31;94749.44;;;22.24;22.95
22651;BME280;11492;42.646;23.400;2023-03-14T10:37:22;94743.88;;;22.67;22.17
22651;BME280;11492;42.646;23.400;2023-03-14T10:39:52;94730.88;;;23.30;21.90
22651;BME280;11492;42.646;23.400;2023-03-14T10:42:34;94721.63;;;23.28;22.01
22651;BME280;11492;42.646;23.400;2023-03-14T10:47:50;94700.00;;;23.06;21.62
22651;BME280;11492;42.646;23.400;2023-03-14T10:50:27;94710.59;;;23.46;21.97
22651;BME280;11492;42.646;23.400;2023-03-14T10:52:55;94697.91;;;23.23;21.57
22651;BME280;11492;42.646;23.400;2023-03-14T10:55:20;94694.22;;;23.19;21.11
22651;BME280;11492;42.646;23.400;2023-03-14T10:57:48;94683.69;;;23.44;21.42
22651;BME280;11492;42.646;23.400;2023-03-14T11:00:17;94683.44;;;23.45;20.90
22651;BME280;11492;42.646;23.400;2023-03-14T11:05:53;94652.81;;;23.05;21.46
22651;BME280;11492;42.646;23.400;2023-03-14T11:08:27;94655.16;;;22.87;21.64
22651;BME280;11492;42.646;23.400;2023-03-14T11:11:02;94643.34;;;22.89;21.75
22651;BME280;11492;42.646;23.400;2023-03-14T11:13:39;94646.50;;;23.30;21.40
22651;BME280;11492;42.646;23.400;2023-03-14T11:19:28;94627.84;;;24.86;20.55
22651;BME280;11492;42.646;23.400;2023-03-14T11:24:37;94611.13;;;25.84;19.42
22651;BME280;11492;42.646;23.400;2023-03-14T11:33:08;94581.09;;;26.39;19.16
22651;BME280;11492;42.646;23.400;2023-03-14T11:36:08;94559.84;;;26.99;18.57
22651;BME280;11492;42.646;23.400;2023-03-14T11:41:15;94547.00;;;27.37;17.80
22651;BME280;11492;42.646;23.400;2023-03-14T11:43:47;94557.75;;;27.45;17.85
22651;BME280;11492;42.646;23.400;2023-03-14T11:46:21;94552.59;;;27.80;17.18
22651;BME280;11492;42.646;23.400;2023-03-14T11:49:03;94556.00;;;27.67;17.30
22651;BME280;11492;42.646;23.400;2023-03-14T11:51:36;94540.66;;;28.30;17.27
22651;BME280;11492;42.646;23.400;2023-03-14T11:54:38;94535.59;;;29.33;16.51
22651;BME280;11492;42.646;23.400;2023-03-14T11:57:17;94523.13;;;30.99;15.94
22651;BME280;11492;42.646;23.400;2023-03-14T12:02:35;94529.13;;;31.91;14.63
22651;BME280;11492;42.646;23.400;2023-03-14T12:10:42;94511.06;;;30.93;15.19
22651;BME280;11492;42.646;23.400;2023-03-14T12:13:09;94505.91;;;30.80;15.22
22651;BME280;11492;42.646;23.400;2023-03-14T12:15:39;94494.41;;;31.12;14.94
22651;BME280;11492;42.646;23.400;2023-03-14T12:18:35;94490.00;;;31.00;14.87
22651;BME280;11492;42.646;23.400;2023-03-14T12:21:04;94490.47;;;30.52;15.36
22651;BME280;11492;42.646;23.400;2023-03-14T12:23:54;94477.59;;;30.45;15.49
22651;BME280;11492;42.646;23.400;2023-03-14T12:26:21;94476.81;;;30.28;15.26
22651;BME280;11492;42.646;23.400;2023-03-14T12:29:14;94468.22;;;29.93;15.49
22651;BME280;11492;42.646;23.400;2023-03-14T12:31:46;94472.75;;;29.84;15.26
22651;BME280;11492;42.646;23.400;2023-03-14T12:42:02;94456.25;;;30.37;15.77
22651;BME280;11492;42.646;23.400;2023-03-14T12:46:57;94442.28;;;31.52;14.29
22651;BME280;11492;42.646;23.400;2023-03-14T12:49:29;94447.50;;;31.48;14.19
22651;BME280;11492;42.646;23.400;2023-03-14T12:51:59;94431.47;;;31.11;14.44
22651;BME280;11492;42.646;23.400;2023-03-14T12:57:28;94428.00;;;29.56;15.64
22651;BME280;11492;42.646;23.400;2023-03-14T12:59:59;94426.47;;;28.60;15.96
22651;BME280;11492;42.646;23.400;2023-03-14T13:02:37;94423.75;;;27.69;16.76
22651;BME280;11492;42.646;23.400;2023-03-14T13:05:09;94423.94;;;27.73;17.15
22651;BME280;11492;42.646;23.400;2023-03-14T13:10:39;94411.66;;;27.63;17.16
22651;BME280;11492;42.646;23.400;2023-03-14T13:13:25;94407.63;;;26.68;17.06
22651;BME280;11492;42.646;23.400;2023-03-14T13:15:59;94409.06;;;26.11;17.84
22651;BME280;11492;42.646;23.400;2023-03-14T13:18:41;94397.63;;;24.26;18.48
22651;BME280;11492;42.646;23.400;2023-03-14T13:21:21;94402.91;;;23.89;18.80
22651;BME280;11492;42.646;23.400;2023-03-14T13:24:02;94398.25;;;23.76;19.32
22651;BME280;11492;42.646;23.400;2023-03-14T13:26:52;94388.38;;;23.39;19.60
22651;BME280;11492;42.646;23.400;2023-03-14T13:29:23;94380.03;;;23.22;20.69
22651;BME280;11492;42.646;23.400;2023-03-14T13:31:52;94375.16;;;22.91;20.70
22651;BME280;11492;42.646;23.400;2023-03-14T13:34:18;94366.75;;;22.84;20.64
22651;BME280;11492;42.646;23.400;2023-03-14T13:36:44;94364.91;;;22.80;20.93
22651;BME280;11492;42.646;23.400;2023-03-14T13:39:16;94349.38;;;22.69;20.99
22651;BME280;11492;42.646;23.400;2023-03-14T13:41:43;94352.81;;;22.59;20.66
22651;BME280;11492;42.646;23.400;2023-03-14T13:44:18;94350.22;;;22.49;21.16
22651;BME280;11492;42.646;23.400;2023-03-14T13:46:48;94332.09;;;22.24;20.82
22651;BME280;11492;42.646;23.400;2023-03-14T13:49:21;94333.44;;;22.16;21.00
22651;BME280;11492;42.646;23.400;2023-03-14T13:51:49;94328.19;;;22.11;21.19
22651;BME280;11492;42.646;23.400;2023-03-14T13:54:17;94329.22;;;21.96;20.86
22651;BME280;11492;42.646;23.400;2023-03-14T13:56:43;94324.22;;;21.79;21.38
22651;BME280;11492;42.646;23.400;2023-03-14T13:59:23;94308.69;;;21.68;21.58